createdAt,value
2018-06-10T00:00:05.727Z,19.41
2018-06-10T00:01:05.668Z,19.38
2018-06-10T00:02:05.608Z,19.32
2018-06-10T00:03:05.547Z,19.31
2018-06-10T00:04:05.489Z,19.32
2018-06-10T00:05:05.431Z,19.42
2018-06-10T00:06:05.369Z,19.41
2018-06-10T00:07:05.310Z,19.32
2018-06-10T00:08:05.251Z,19.35
2018-06-10T00:09:05.193Z,19.38
2018-06-10T00:10:05.132Z,19.19
2018-06-10T00:11:05.074Z,19.23
2018-06-10T00:12:05.015Z,19.23
2018-06-10T00:13:04.960Z,19.20
2018-06-10T00:14:04.896Z,19.27
2018-06-10T00:15:04.840Z,19.24
2018-06-10T00:16:04.780Z,19.16
2018-06-10T00:17:04.718Z,19.17
2018-06-10T00:18:04.658Z,19.19
2018-06-10T00:19:04.614Z,19.19
2018-06-10T00:20:04.542Z,19.24
2018-06-10T00:21:04.481Z,19.17
2018-06-10T00:22:04.425Z,19.05
2018-06-10T00:23:04.365Z,19.08
2018-06-10T00:24:04.303Z,19.13
2018-06-10T00:25:04.244Z,19.01
2018-06-10T00:26:04.185Z,18.93
2018-06-10T00:27:04.125Z,18.94
2018-06-10T00:28:04.063Z,19.00
2018-06-10T00:29:04.005Z,19.04
2018-06-10T00:30:03.947Z,19.09
2018-06-10T00:31:03.886Z,19.09
2018-06-10T00:32:03.828Z,19.07
2018-06-10T00:33:03.769Z,19.13
2018-06-10T00:34:03.714Z,19.09
2018-06-10T00:35:03.649Z,19.15
2018-06-10T00:36:03.591Z,19.07
2018-06-10T00:37:03.530Z,19.13
2018-06-10T00:38:03.472Z,19.09
2018-06-10T00:39:03.414Z,19.12
2018-06-10T00:40:03.356Z,19.09
2018-06-10T00:41:03.293Z,19.00
2018-06-10T00:42:03.234Z,19.08
2018-06-10T00:43:03.174Z,19.16
2018-06-10T00:44:03.115Z,19.16
2018-06-10T00:45:03.056Z,19.19
2018-06-10T00:46:02.996Z,19.15
2018-06-10T00:47:02.935Z,19.19
2018-06-10T00:48:02.876Z,19.22
2018-06-10T00:49:02.816Z,19.19
2018-06-10T00:50:02.758Z,19.24
2018-06-10T00:51:02.700Z,19.19
2018-06-10T00:52:02.642Z,19.19
2018-06-10T00:53:02.580Z,19.17
2018-06-10T00:54:02.521Z,19.19
2018-06-10T00:55:02.459Z,19.17
2018-06-10T00:56:02.404Z,19.19
2018-06-10T00:57:02.342Z,19.16
2018-06-10T00:58:02.291Z,19.13
2018-06-10T00:59:02.221Z,19.13
2018-06-10T01:00:02.164Z,19.07
2018-06-10T01:01:02.103Z,19.01
2018-06-10T01:02:02.047Z,19.04
2018-06-10T01:03:01.984Z,19.09
2018-06-10T01:04:01.925Z,19.09
2018-06-10T01:05:01.865Z,19.09
2018-06-10T01:06:01.809Z,19.13
2018-06-10T01:07:01.746Z,19.01
2018-06-10T01:08:01.686Z,19.05
2018-06-10T01:09:01.629Z,19.05
2018-06-10T01:10:01.567Z,19.01
2018-06-10T01:11:01.507Z,19.00
2018-06-10T01:12:01.447Z,18.97
2018-06-10T01:13:01.389Z,18.97
2018-06-10T01:14:01.328Z,19.01
2018-06-10T01:15:01.270Z,19.04
2018-06-10T01:16:01.210Z,19.04
2018-06-10T01:17:01.149Z,19.00
2018-06-10T01:18:01.091Z,18.94
2018-06-10T01:19:01.031Z,18.96
2018-06-10T01:20:00.971Z,18.94
2018-06-10T01:21:00.912Z,19.00
2018-06-10T01:22:00.852Z,18.98
2018-06-10T01:23:00.793Z,19.00
2018-06-10T01:24:00.735Z,19.01
2018-06-10T01:25:00.671Z,18.86
2018-06-10T01:26:00.613Z,18.85
2018-06-10T01:27:00.554Z,18.91
2018-06-10T01:28:00.494Z,18.88
2018-06-10T01:29:00.434Z,18.85
2018-06-10T01:30:00.377Z,18.88
2018-06-10T01:31:00.314Z,18.86
2018-06-10T01:32:00.256Z,18.82
2018-06-10T01:33:00.199Z,18.91
2018-06-10T01:34:00.140Z,18.89
2018-06-10T01:35:00.078Z,18.88
2018-06-10T01:36:00.021Z,18.86
2018-06-10T01:36:59.958Z,18.82
2018-06-10T01:37:59.901Z,18.93
2018-06-10T01:38:59.838Z,18.85
2018-06-10T01:39:59.778Z,18.88
2018-06-10T01:40:59.719Z,18.83
2018-06-10T01:41:59.661Z,18.88
2018-06-10T01:42:59.601Z,18.86
2018-06-10T01:43:59.544Z,18.91
2018-06-10T01:44:59.482Z,18.86
2018-06-10T01:45:59.422Z,18.91
2018-06-10T01:46:59.363Z,18.85
2018-06-10T01:47:59.302Z,18.91
2018-06-10T01:48:59.250Z,18.91
2018-06-10T01:49:59.183Z,18.88
2018-06-10T01:50:59.123Z,18.88
2018-06-10T01:51:59.062Z,18.89
2018-06-10T01:52:59.003Z,18.93
2018-06-10T01:53:58.946Z,18.89
2018-06-10T01:54:58.888Z,18.89
2018-06-10T01:55:58.822Z,18.88
2018-06-10T01:56:58.765Z,18.86
2018-06-10T01:57:58.706Z,18.83
2018-06-10T01:58:58.645Z,18.85
2018-06-10T01:59:58.588Z,18.85
2018-06-10T02:00:58.530Z,18.83
2018-06-10T02:01:58.464Z,18.83
2018-06-10T02:02:58.418Z,18.79
2018-06-10T02:03:58.348Z,18.81
2018-06-10T02:04:58.289Z,18.78
2018-06-10T02:05:58.228Z,18.78
2018-06-10T02:06:58.168Z,18.74
2018-06-10T02:07:58.108Z,18.70
2018-06-10T02:08:58.050Z,18.74
2018-06-10T02:09:57.990Z,18.75
2018-06-10T02:10:57.929Z,18.78
2018-06-10T02:11:57.871Z,18.67
2018-06-10T02:12:57.814Z,18.74
2018-06-10T02:13:57.750Z,18.81
2018-06-10T02:14:57.691Z,18.76
2018-06-10T02:15:57.630Z,18.75
2018-06-10T02:16:57.571Z,18.78
2018-06-10T02:17:57.512Z,18.75
2018-06-10T02:18:57.451Z,18.75
2018-06-10T02:19:57.394Z,18.71
2018-06-10T02:20:57.332Z,18.78
2018-06-10T02:21:57.274Z,18.67
2018-06-10T02:22:57.211Z,18.76
2018-06-10T02:23:57.154Z,18.78
2018-06-10T02:24:57.092Z,18.78
2018-06-10T02:25:57.035Z,18.81
2018-06-10T02:26:56.973Z,18.78
2018-06-10T02:27:56.915Z,18.71
2018-06-10T02:28:56.853Z,18.75
2018-06-10T02:29:56.796Z,18.67
2018-06-10T02:30:56.734Z,18.68
2018-06-10T02:31:56.675Z,18.64
2018-06-10T02:32:56.617Z,18.74
2018-06-10T02:33:56.555Z,18.68
2018-06-10T02:34:56.496Z,18.66
2018-06-10T02:35:56.434Z,18.67
2018-06-10T02:36:56.376Z,18.66
2018-06-10T02:37:56.319Z,18.67
2018-06-10T02:38:56.261Z,18.74
2018-06-10T02:39:56.198Z,18.70
2018-06-10T02:40:56.138Z,18.60
2018-06-10T02:41:56.077Z,18.63
2018-06-10T02:42:56.022Z,18.70
2018-06-10T02:43:55.959Z,18.63
2018-06-10T02:44:55.898Z,18.67
2018-06-10T02:45:55.840Z,18.51
2018-06-10T02:46:55.777Z,18.64
2018-06-10T02:47:55.720Z,18.61
2018-06-10T02:48:55.660Z,18.54
2018-06-10T02:49:55.599Z,18.57
2018-06-10T02:50:55.538Z,18.56
2018-06-10T02:51:55.482Z,18.56
2018-06-10T02:52:55.419Z,18.56
2018-06-10T02:53:55.359Z,18.51
2018-06-10T02:54:55.300Z,18.54
2018-06-10T02:55:55.249Z,18.57
2018-06-10T02:56:55.183Z,18.54
2018-06-10T02:57:55.121Z,18.56
2018-06-10T02:58:55.060Z,18.52
2018-06-10T02:59:55.000Z,18.51
2018-06-10T03:00:54.943Z,18.56
2018-06-10T03:01:54.882Z,18.56
2018-06-10T03:02:54.827Z,18.56
2018-06-10T03:03:54.770Z,18.56
2018-06-10T03:04:54.702Z,18.49
2018-06-10T03:05:54.642Z,18.54
2018-06-10T03:06:54.580Z,18.52
2018-06-10T03:07:54.597Z,18.58
2018-06-10T03:08:54.464Z,18.67
2018-06-10T03:09:54.402Z,18.54
2018-06-10T03:10:54.343Z,18.57
2018-06-10T03:11:54.283Z,18.58
2018-06-10T03:12:54.224Z,18.58
2018-06-10T03:13:54.164Z,18.57
2018-06-10T03:14:54.102Z,18.56
2018-06-10T03:15:54.048Z,18.58
2018-06-10T03:16:53.985Z,18.57
2018-06-10T03:17:53.925Z,18.51
2018-06-10T03:18:53.865Z,18.61
2018-06-10T03:19:53.819Z,18.57
2018-06-10T03:20:53.745Z,18.54
2018-06-10T03:21:53.685Z,18.52
2018-06-10T03:22:53.623Z,18.67
2018-06-10T03:23:53.565Z,18.66
2018-06-10T03:24:53.507Z,18.64
2018-06-10T03:25:53.446Z,18.66
2018-06-10T03:26:53.385Z,18.61
2018-06-10T03:27:53.326Z,18.56
2018-06-10T03:28:53.268Z,18.54
2018-06-10T03:29:53.208Z,18.56
2018-06-10T03:30:53.149Z,18.67
2018-06-10T03:31:53.093Z,18.61
2018-06-10T03:32:53.027Z,18.67
2018-06-10T03:33:52.968Z,18.64
2018-06-10T03:34:52.907Z,18.63
2018-06-10T03:35:52.853Z,18.57
2018-06-10T03:36:52.786Z,18.66
2018-06-10T03:37:52.725Z,18.61
2018-06-10T03:38:52.668Z,18.58
2018-06-10T03:39:52.608Z,18.64
2018-06-10T03:40:52.549Z,18.64
2018-06-10T03:41:52.490Z,18.64
2018-06-10T03:42:52.430Z,18.63
2018-06-10T03:43:52.369Z,18.67
2018-06-10T03:44:52.312Z,18.61
2018-06-10T03:45:52.252Z,18.68
2018-06-10T03:46:52.189Z,18.71
2018-06-10T03:47:52.129Z,18.74
2018-06-10T03:48:52.066Z,18.70
2018-06-10T03:49:52.010Z,18.70
2018-06-10T03:50:51.949Z,18.67
2018-06-10T03:51:51.892Z,18.67
2018-06-10T03:52:51.830Z,18.74
2018-06-10T03:53:51.771Z,18.70
2018-06-10T03:54:51.710Z,18.68
2018-06-10T03:55:51.651Z,18.76
2018-06-10T03:56:51.592Z,18.78
2018-06-10T03:57:51.531Z,18.78
2018-06-10T03:58:51.473Z,18.82
2018-06-10T03:59:51.427Z,18.81
2018-06-10T04:00:51.421Z,18.82
2018-06-10T04:01:51.289Z,18.78
2018-06-10T04:02:51.234Z,18.74
2018-06-10T04:03:51.171Z,18.81
2018-06-10T04:04:51.112Z,18.88
2018-06-10T04:05:51.052Z,18.85
2018-06-10T04:06:50.992Z,18.91
2018-06-10T04:07:50.933Z,18.91
2018-06-10T04:08:50.875Z,18.74
2018-06-10T04:09:50.817Z,18.85
2018-06-10T04:10:50.752Z,18.85
2018-06-10T04:11:50.694Z,18.85
2018-06-10T04:12:50.634Z,18.83
2018-06-10T04:13:50.573Z,18.88
2018-06-10T04:14:50.516Z,18.88
2018-06-10T04:15:50.454Z,18.94
2018-06-10T04:16:50.398Z,18.97
2018-06-10T04:17:50.337Z,18.94
2018-06-10T04:18:50.277Z,18.97
2018-06-10T04:19:50.216Z,18.94
2018-06-10T04:20:50.158Z,19.04
2018-06-10T04:21:50.096Z,18.98
2018-06-10T04:22:50.039Z,19.12
2018-06-10T04:23:49.977Z,19.07
2018-06-10T04:24:49.919Z,19.09
2018-06-10T04:25:49.858Z,19.01
2018-06-10T04:26:49.801Z,19.07
2018-06-10T04:27:49.737Z,19.09
2018-06-10T04:28:49.678Z,19.19
2018-06-10T04:29:49.620Z,19.17
2018-06-10T04:30:49.559Z,19.16
2018-06-10T04:31:49.500Z,19.20
2018-06-10T04:32:49.442Z,19.23
2018-06-10T04:33:49.382Z,19.23
2018-06-10T04:34:49.320Z,19.17
2018-06-10T04:35:49.266Z,19.26
2018-06-10T04:36:49.203Z,19.31
2018-06-10T04:37:49.143Z,19.27
2018-06-10T04:38:49.082Z,19.35
2018-06-10T04:39:49.028Z,19.35
2018-06-10T04:40:48.966Z,19.30
2018-06-10T04:41:48.907Z,19.37
2018-06-10T04:42:48.845Z,19.34
2018-06-10T04:43:48.785Z,19.35
2018-06-10T04:44:48.727Z,19.38
2018-06-10T04:45:48.666Z,19.41
2018-06-10T04:46:48.606Z,19.42
2018-06-10T04:47:48.547Z,19.49
2018-06-10T04:48:48.488Z,19.44
2018-06-10T04:49:48.429Z,19.49
2018-06-10T04:50:48.374Z,19.42
2018-06-10T04:51:48.310Z,19.57
2018-06-10T04:52:48.252Z,19.50
2018-06-10T04:53:48.191Z,19.54
2018-06-10T04:54:48.133Z,19.56
2018-06-10T04:55:48.075Z,19.59
2018-06-10T04:56:48.015Z,19.63
2018-06-10T04:57:47.955Z,19.67
2018-06-10T04:58:47.895Z,19.60
2018-06-10T04:59:47.836Z,19.62
2018-06-10T05:00:47.776Z,19.72
2018-06-10T05:01:47.716Z,19.74
2018-06-10T05:02:47.656Z,19.74
2018-06-10T05:03:47.598Z,19.84
2018-06-10T05:04:47.540Z,19.89
2018-06-10T05:05:47.486Z,19.89
2018-06-10T05:06:47.420Z,19.93
2018-06-10T05:07:47.356Z,19.92
2018-06-10T05:08:47.302Z,19.96
2018-06-10T05:09:47.246Z,19.99
2018-06-10T05:10:47.184Z,19.99
2018-06-10T05:11:47.125Z,20.02
2018-06-10T05:12:47.065Z,20.04
2018-06-10T05:13:47.005Z,20.02
2018-06-10T05:14:46.947Z,20.08
2018-06-10T05:15:46.889Z,20.15
2018-06-10T05:16:46.829Z,20.12
2018-06-10T05:17:46.770Z,20.18
2018-06-10T05:18:46.712Z,20.23
2018-06-10T05:19:46.666Z,20.22
2018-06-10T05:20:46.593Z,20.23
2018-06-10T05:21:46.536Z,20.27
2018-06-10T05:22:46.475Z,20.37
2018-06-10T05:23:46.417Z,20.34
2018-06-10T05:24:46.362Z,20.36
2018-06-10T05:25:46.301Z,20.39
2018-06-10T05:26:46.241Z,20.42
2018-06-10T05:27:46.181Z,20.36
2018-06-10T05:28:46.129Z,20.52
2018-06-10T05:29:46.063Z,20.58
2018-06-10T05:30:46.008Z,20.61
2018-06-10T05:31:45.951Z,20.56
2018-06-10T05:32:45.888Z,20.64
2018-06-10T05:33:45.829Z,20.63
2018-06-10T05:34:45.772Z,20.65
2018-06-10T05:35:45.713Z,20.77
2018-06-10T05:36:45.653Z,20.75
2018-06-10T05:37:45.594Z,20.79
2018-06-10T05:38:45.535Z,20.85
2018-06-10T05:39:45.478Z,20.86
2018-06-10T05:40:45.419Z,20.85
2018-06-10T05:41:45.362Z,21.00
2018-06-10T05:42:45.299Z,20.97
2018-06-10T05:43:45.244Z,20.97
2018-06-10T05:44:45.186Z,21.04
2018-06-10T05:45:45.128Z,21.05
2018-06-10T05:46:45.072Z,21.11
2018-06-10T05:47:45.009Z,21.10
2018-06-10T05:48:44.952Z,21.10
2018-06-10T05:49:44.893Z,21.07
2018-06-10T05:50:44.833Z,21.20
2018-06-10T05:51:44.775Z,21.18
2018-06-10T05:52:44.717Z,21.23
2018-06-10T05:53:44.658Z,21.13
2018-06-10T05:54:44.600Z,21.20
2018-06-10T05:55:44.544Z,21.22
2018-06-10T05:56:44.485Z,21.16
2018-06-10T05:57:44.425Z,21.23
2018-06-10T05:58:44.372Z,21.22
2018-06-10T05:59:44.308Z,21.28
2018-06-10T06:00:44.253Z,21.30
2018-06-10T06:01:44.195Z,21.34
2018-06-10T06:02:44.134Z,21.34
2018-06-10T06:03:44.075Z,21.29
2018-06-10T06:04:44.021Z,21.35
2018-06-10T06:05:43.959Z,21.45
2018-06-10T06:06:43.922Z,21.47
2018-06-10T06:07:43.845Z,21.55
2018-06-10T06:08:43.790Z,21.51
2018-06-10T06:09:43.728Z,21.58
2018-06-10T06:10:43.669Z,21.56
2018-06-10T06:11:43.612Z,21.60
2018-06-10T06:12:43.558Z,21.66
2018-06-10T06:13:43.497Z,21.66
2018-06-10T06:14:43.439Z,21.69
2018-06-10T06:15:43.380Z,21.78
2018-06-10T06:16:43.322Z,21.84
2018-06-10T06:17:43.263Z,21.88
2018-06-10T06:18:43.204Z,21.85
2018-06-10T06:19:43.152Z,21.93
2018-06-10T06:20:43.090Z,21.97
2018-06-10T06:21:43.033Z,22.01
2018-06-10T06:22:42.976Z,22.09
2018-06-10T06:23:42.923Z,22.09
2018-06-10T06:24:42.861Z,21.98
2018-06-10T06:25:42.803Z,22.03
2018-06-10T06:26:42.744Z,22.15
2018-06-10T06:27:42.687Z,22.19
2018-06-10T06:28:42.628Z,22.22
2018-06-10T06:29:42.576Z,22.28
2018-06-10T06:30:42.512Z,22.27
2018-06-10T06:31:42.464Z,22.33
2018-06-10T06:32:42.399Z,22.36
2018-06-10T06:33:42.340Z,22.38
2018-06-10T06:34:42.281Z,22.34
2018-06-10T06:35:42.225Z,22.28
2018-06-10T06:36:42.167Z,22.22
2018-06-10T06:37:42.110Z,22.27
2018-06-10T06:38:42.050Z,22.28
2018-06-10T06:39:41.998Z,22.33
2018-06-10T06:40:41.940Z,22.36
2018-06-10T06:41:41.881Z,22.31
2018-06-10T06:42:41.821Z,22.30
2018-06-10T06:43:41.764Z,22.25
2018-06-10T06:44:41.717Z,22.30
2018-06-10T06:45:41.651Z,22.33
2018-06-10T06:46:41.592Z,22.43
2018-06-10T06:47:41.534Z,22.44
2018-06-10T06:48:41.478Z,22.51
2018-06-10T06:49:41.421Z,22.52
2018-06-10T06:50:41.361Z,22.74
2018-06-10T06:51:41.304Z,22.70
2018-06-10T06:52:41.248Z,22.71
2018-06-10T06:53:41.193Z,22.71
2018-06-10T06:54:41.137Z,22.67
2018-06-10T06:55:41.076Z,22.80
2018-06-10T06:56:41.020Z,22.78
2018-06-10T06:57:40.964Z,22.86
2018-06-10T06:58:40.908Z,22.83
2018-06-10T06:59:40.849Z,22.92
2018-06-10T07:00:40.794Z,22.99
2018-06-10T07:01:40.735Z,22.98
2018-06-10T07:02:40.677Z,22.99
2018-06-10T07:03:40.622Z,23.06
2018-06-10T07:04:40.563Z,22.98
2018-06-10T07:05:40.505Z,22.96
2018-06-10T07:06:40.448Z,23.03
2018-06-10T07:07:40.395Z,23.17
2018-06-10T07:08:40.337Z,23.14
2018-06-10T07:09:40.277Z,23.17
2018-06-10T07:10:40.219Z,23.15
2018-06-10T07:11:40.167Z,23.15
2018-06-10T07:12:40.107Z,23.29
2018-06-10T07:13:40.050Z,23.31
2018-06-10T07:14:39.988Z,23.45
2018-06-10T07:15:39.936Z,23.36
2018-06-10T07:16:39.878Z,23.56
2018-06-10T07:17:39.822Z,23.48
2018-06-10T07:18:39.766Z,23.63
2018-06-10T07:19:39.709Z,23.60
2018-06-10T07:20:39.650Z,23.64
2018-06-10T07:21:39.598Z,23.82
2018-06-10T07:22:39.536Z,23.67
2018-06-10T07:23:39.532Z,23.74
2018-06-10T07:24:39.427Z,23.73
2018-06-10T07:25:39.371Z,23.86
2018-06-10T07:26:39.313Z,23.92
2018-06-10T07:27:39.253Z,23.92
2018-06-10T07:28:39.199Z,23.85
2018-06-10T07:29:39.143Z,23.86
2018-06-10T07:30:39.088Z,23.89
2018-06-10T07:31:39.033Z,23.98
2018-06-10T07:32:38.978Z,24.01
2018-06-10T07:33:38.917Z,24.00
2018-06-10T07:34:38.861Z,24.15
2018-06-10T07:35:38.804Z,24.19
2018-06-10T07:36:38.749Z,24.19
2018-06-10T07:37:38.688Z,24.21
2018-06-10T07:38:38.638Z,24.31
2018-06-10T07:39:38.581Z,24.23
2018-06-10T07:40:38.541Z,24.33
2018-06-10T07:41:38.467Z,24.40
2018-06-10T07:42:38.411Z,24.45
2018-06-10T07:43:38.353Z,24.37
2018-06-10T07:44:38.300Z,24.51
2018-06-10T07:45:38.242Z,24.53
2018-06-10T07:46:38.186Z,24.52
2018-06-10T07:47:38.137Z,24.44
2018-06-10T07:48:38.093Z,24.38
2018-06-10T07:49:38.018Z,24.51
2018-06-10T07:50:37.962Z,24.47
2018-06-10T07:51:37.906Z,24.53
2018-06-10T07:52:37.853Z,24.38
2018-06-10T07:53:37.794Z,24.47
2018-06-10T07:54:37.738Z,24.59
2018-06-10T07:55:37.682Z,24.65
2018-06-10T07:56:37.632Z,24.65
2018-06-10T07:57:37.571Z,24.55
2018-06-10T07:58:37.514Z,24.37
2018-06-10T07:59:37.458Z,24.29
2018-06-10T08:00:37.404Z,24.33
2018-06-10T08:01:37.349Z,24.44
2018-06-10T08:02:37.288Z,24.40
2018-06-10T08:03:37.241Z,24.34
2018-06-10T08:04:37.235Z,24.37
2018-06-10T08:05:37.125Z,24.36
2018-06-10T08:06:37.067Z,24.40
2018-06-10T08:07:37.013Z,24.51
2018-06-10T08:08:36.956Z,24.56
2018-06-10T08:09:36.899Z,24.51
2018-06-10T08:10:36.844Z,24.48
2018-06-10T08:11:36.789Z,24.55
2018-06-10T08:12:36.735Z,24.58
2018-06-10T08:13:36.677Z,24.58
2018-06-10T08:14:36.619Z,24.48
2018-06-10T08:15:36.566Z,24.34
2018-06-10T08:16:36.515Z,24.55
2018-06-10T08:17:36.453Z,24.52
2018-06-10T08:18:36.403Z,24.62
2018-06-10T08:19:36.342Z,24.70
2018-06-10T08:20:36.289Z,24.84
2018-06-10T08:21:36.236Z,24.90
2018-06-10T08:22:36.177Z,24.90
2018-06-10T08:23:36.125Z,24.93
2018-06-10T08:24:36.064Z,24.86
2018-06-10T08:25:36.007Z,24.91
2018-06-10T08:26:36.037Z,24.93
2018-06-10T08:27:35.894Z,24.89
2018-06-10T08:28:35.839Z,24.89
2018-06-10T08:29:35.787Z,24.94
2018-06-10T08:30:35.729Z,24.89
2018-06-10T08:31:35.672Z,24.93
2018-06-10T08:32:35.614Z,24.86
2018-06-10T08:33:35.558Z,24.84
2018-06-10T08:34:35.503Z,24.86
2018-06-10T08:35:35.455Z,24.93
2018-06-10T08:36:35.411Z,25.01
2018-06-10T08:37:35.339Z,24.99
2018-06-10T08:38:35.284Z,25.01
2018-06-10T08:39:35.228Z,24.97
2018-06-10T08:40:35.172Z,24.93
2018-06-10T08:41:35.121Z,24.91
2018-06-10T08:42:35.063Z,25.00
2018-06-10T08:43:35.006Z,25.04
2018-06-10T08:44:34.951Z,25.23
2018-06-10T08:45:34.895Z,25.37
2018-06-10T08:46:34.843Z,25.43
2018-06-10T08:47:34.783Z,25.55
2018-06-10T08:48:34.729Z,25.66
2018-06-10T08:49:34.675Z,25.77
2018-06-10T08:50:34.665Z,25.88
2018-06-10T08:51:34.564Z,25.95
2018-06-10T08:52:34.505Z,26.01
2018-06-10T08:53:34.454Z,25.92
2018-06-10T08:54:34.396Z,26.05
2018-06-10T08:55:34.341Z,26.21
2018-06-10T08:56:34.286Z,26.16
2018-06-10T08:57:34.232Z,26.30
2018-06-10T08:58:34.175Z,26.56
2018-06-10T08:59:34.123Z,26.73
2018-06-10T09:00:34.063Z,26.95
2018-06-10T09:01:34.010Z,27.10
2018-06-10T09:02:33.954Z,27.20
2018-06-10T09:03:33.899Z,26.95
2018-06-10T09:04:33.845Z,26.78
2018-06-10T09:05:33.807Z,26.79
2018-06-10T09:06:33.733Z,26.65
2018-06-10T09:07:33.684Z,26.61
2018-06-10T09:08:33.659Z,26.53
2018-06-10T09:09:33.569Z,26.43
2018-06-10T09:10:33.516Z,26.31
2018-06-10T09:11:33.460Z,26.15
2018-06-10T09:12:33.406Z,26.63
2018-06-10T09:13:33.353Z,27.10
2018-06-10T09:14:33.298Z,27.52
2018-06-10T09:15:33.239Z,28.22
2018-06-10T09:16:33.187Z,28.89
2018-06-10T09:17:33.131Z,29.44
2018-06-10T09:18:33.073Z,29.31
2018-06-10T09:19:33.024Z,29.59
2018-06-10T09:20:32.968Z,29.22
2018-06-10T09:21:32.916Z,28.90
2018-06-10T09:22:32.861Z,29.58
2018-06-10T09:23:32.809Z,29.61
2018-06-10T09:24:32.755Z,28.93
2018-06-10T09:25:32.700Z,29.39
2018-06-10T09:26:32.647Z,29.80
2018-06-10T09:27:32.593Z,29.19
2018-06-10T09:28:32.542Z,29.68
2018-06-10T09:29:32.489Z,29.36
2018-06-10T09:30:32.436Z,28.84
2018-06-10T09:31:32.385Z,28.25
2018-06-10T09:32:32.332Z,27.85
2018-06-10T09:33:32.280Z,27.34
2018-06-10T09:34:32.240Z,27.04
2018-06-10T09:35:32.232Z,26.82
2018-06-10T09:36:32.122Z,26.76
2018-06-10T09:37:32.069Z,26.42
2018-06-10T09:38:32.016Z,26.33
2018-06-10T09:39:31.964Z,26.76
2018-06-10T09:40:31.912Z,27.50
2018-06-10T09:41:31.859Z,28.42
2018-06-10T09:42:31.805Z,29.19
2018-06-10T09:43:31.753Z,29.98
2018-06-10T09:44:31.699Z,30.28
2018-06-10T09:45:31.649Z,30.28
2018-06-10T09:46:31.593Z,30.51
2018-06-10T09:47:31.540Z,30.33
2018-06-10T09:48:31.489Z,29.68
2018-06-10T09:49:31.438Z,28.93
2018-06-10T09:50:31.386Z,28.44
2018-06-10T09:51:31.333Z,28.25
2018-06-10T09:52:31.280Z,28.00
2018-06-10T09:53:31.230Z,28.77
2018-06-10T09:54:31.174Z,29.49
2018-06-10T09:55:31.289Z,29.63
2018-06-10T09:56:31.078Z,29.09
2018-06-10T09:57:31.021Z,29.00
2018-06-10T09:58:30.967Z,29.58
2018-06-10T09:59:30.918Z,30.18
2018-06-10T10:00:30.869Z,30.18
2018-06-10T10:01:30.814Z,30.22
2018-06-10T10:02:30.760Z,30.53
2018-06-10T10:03:30.711Z,30.96
2018-06-10T10:04:30.660Z,31.19
2018-06-10T10:05:30.607Z,31.41
2018-06-10T10:06:30.562Z,31.12
2018-06-10T10:07:30.505Z,31.38
2018-06-10T10:08:30.455Z,31.78
2018-06-10T10:09:30.404Z,32.11
2018-06-10T10:10:30.354Z,32.11
2018-06-10T10:11:30.305Z,31.30
2018-06-10T10:12:30.289Z,30.36
2018-06-10T10:13:30.201Z,30.58
2018-06-10T10:14:30.185Z,31.04
2018-06-10T10:15:30.100Z,31.26
2018-06-10T10:16:30.051Z,31.17
2018-06-10T10:17:30.001Z,30.48
2018-06-10T10:18:29.951Z,30.36
2018-06-10T10:19:29.906Z,30.11
2018-06-10T10:20:29.852Z,30.46
2018-06-10T10:21:29.799Z,31.07
2018-06-10T10:22:29.752Z,31.49
2018-06-10T10:23:29.700Z,31.61
2018-06-10T10:24:29.651Z,31.98
2018-06-10T10:25:29.607Z,31.52
2018-06-10T10:26:29.552Z,30.77
2018-06-10T10:27:29.505Z,30.30
2018-06-10T10:28:29.451Z,29.92
2018-06-10T10:29:29.403Z,29.56
2018-06-10T10:30:29.357Z,29.22
2018-06-10T10:31:29.363Z,29.07
2018-06-10T10:32:29.252Z,28.80
2018-06-10T10:33:29.205Z,29.59
2018-06-10T10:34:29.152Z,30.05
2018-06-10T10:35:29.103Z,29.55
2018-06-10T10:36:29.056Z,29.06
2018-06-10T10:37:29.001Z,29.36
2018-06-10T10:38:28.998Z,30.03
2018-06-10T10:39:28.899Z,30.56
2018-06-10T10:40:28.849Z,31.26
2018-06-10T10:41:28.797Z,31.64
2018-06-10T10:42:28.747Z,31.78
2018-06-10T10:43:28.697Z,31.78
2018-06-10T10:44:28.646Z,31.08
2018-06-10T10:45:28.600Z,30.77
2018-06-10T10:46:28.544Z,30.45
2018-06-10T10:47:28.494Z,30.18
2018-06-10T10:48:28.443Z,29.78
2018-06-10T10:49:28.394Z,29.44
2018-06-10T10:50:28.343Z,29.24
2018-06-10T10:51:28.292Z,28.93
2018-06-10T10:52:28.241Z,28.72
2018-06-10T10:53:28.197Z,28.59
2018-06-10T10:54:28.139Z,28.32
2018-06-10T10:55:28.090Z,28.25
2018-06-10T10:56:28.039Z,28.16
2018-06-10T10:57:27.987Z,28.01
2018-06-10T10:58:27.935Z,27.97
2018-06-10T10:59:27.883Z,28.00
2018-06-10T11:00:27.831Z,27.88
2018-06-10T11:01:27.780Z,27.78
2018-06-10T11:02:27.726Z,27.70
2018-06-10T11:03:27.680Z,27.69
2018-06-10T11:04:27.623Z,27.79
2018-06-10T11:05:27.572Z,27.68
2018-06-10T11:06:27.518Z,27.47
2018-06-10T11:07:27.465Z,27.44
2018-06-10T11:08:27.414Z,27.35
2018-06-10T11:09:27.360Z,27.26
2018-06-10T11:10:27.310Z,27.17
2018-06-10T11:11:27.257Z,27.08
2018-06-10T11:12:27.201Z,26.89
2018-06-10T11:13:27.149Z,26.80
2018-06-10T11:14:27.093Z,26.75
2018-06-10T11:15:27.039Z,26.64
2018-06-10T11:16:26.989Z,26.61
2018-06-10T11:17:26.935Z,26.56
2018-06-10T11:18:26.880Z,26.49
2018-06-10T11:19:26.827Z,26.45
2018-06-10T11:20:26.812Z,26.30
2018-06-10T11:21:26.722Z,26.11
2018-06-10T11:22:26.664Z,25.93
2018-06-10T11:23:26.612Z,25.53
2018-06-10T11:24:26.558Z,25.23
2018-06-10T11:25:26.504Z,24.85
2018-06-10T11:26:26.449Z,24.60
2018-06-10T11:27:26.396Z,24.37
2018-06-10T11:28:26.341Z,24.16
2018-06-10T11:29:26.287Z,23.97
2018-06-10T11:30:26.230Z,23.84
2018-06-10T11:31:26.178Z,23.66
2018-06-10T11:32:26.127Z,23.71
2018-06-10T11:33:26.068Z,23.69
2018-06-10T11:34:26.029Z,23.59
2018-06-10T11:35:25.957Z,23.56
2018-06-10T11:36:25.901Z,23.56
2018-06-10T11:37:25.848Z,23.61
2018-06-10T11:38:25.789Z,23.56
2018-06-10T11:39:25.735Z,23.45
2018-06-10T11:40:25.679Z,23.37
2018-06-10T11:41:25.628Z,23.31
2018-06-10T11:42:25.619Z,23.29
2018-06-10T11:43:25.513Z,23.18
2018-06-10T11:44:25.457Z,23.08
2018-06-10T11:45:25.403Z,22.89
2018-06-10T11:46:25.348Z,22.83
2018-06-10T11:47:25.291Z,22.80
2018-06-10T11:48:25.236Z,22.62
2018-06-10T11:49:25.181Z,22.55
2018-06-10T11:50:25.123Z,22.28
2018-06-10T11:51:25.067Z,22.07
2018-06-10T11:52:25.014Z,22.12
2018-06-10T11:53:24.954Z,22.06
2018-06-10T11:54:24.899Z,21.96
2018-06-10T11:55:24.843Z,21.94
2018-06-10T11:56:24.787Z,21.90
2018-06-10T11:57:24.730Z,21.91
2018-06-10T11:58:24.673Z,21.88
2018-06-10T11:59:24.615Z,21.80
2018-06-10T12:00:24.559Z,21.88
2018-06-10T12:01:24.503Z,21.84
2018-06-10T12:02:24.461Z,21.85
2018-06-10T12:03:24.389Z,21.90
2018-06-10T12:04:24.332Z,21.88
2018-06-10T12:05:24.276Z,21.80
2018-06-10T12:06:24.217Z,21.74
2018-06-10T12:07:24.162Z,21.82
2018-06-10T12:08:24.106Z,21.71
2018-06-10T12:09:24.052Z,21.74
2018-06-10T12:10:23.990Z,21.75
2018-06-10T12:11:23.933Z,21.67
2018-06-10T12:12:23.877Z,21.71
2018-06-10T12:13:23.818Z,21.73
2018-06-10T12:14:23.763Z,21.62
2018-06-10T12:15:23.704Z,21.51
2018-06-10T12:16:23.648Z,21.43
2018-06-10T12:17:23.591Z,21.32
2018-06-10T12:18:23.533Z,21.18
2018-06-10T12:19:23.476Z,21.18
2018-06-10T12:20:23.419Z,21.04
2018-06-10T12:21:23.361Z,21.11
2018-06-10T12:22:23.302Z,21.08
2018-06-10T12:23:23.247Z,21.08
2018-06-10T12:24:23.192Z,21.08
2018-06-10T12:25:23.132Z,21.01
2018-06-10T12:26:23.076Z,20.90
2018-06-10T12:27:23.015Z,20.93
2018-06-10T12:28:22.958Z,20.83
2018-06-10T12:29:22.970Z,20.86
2018-06-10T12:30:22.842Z,20.98
2018-06-10T12:31:22.783Z,20.90
2018-06-10T12:32:22.728Z,20.90
2018-06-10T12:33:22.669Z,21.00
2018-06-10T12:34:22.666Z,20.98
2018-06-10T12:35:22.553Z,20.98
2018-06-10T12:36:22.497Z,21.00
2018-06-10T12:37:22.440Z,21.10
2018-06-10T12:38:22.381Z,21.14
2018-06-10T12:39:22.325Z,21.16
2018-06-10T12:40:22.269Z,21.29
2018-06-10T12:41:22.256Z,21.34
2018-06-10T12:42:22.150Z,21.40
2018-06-10T12:43:22.093Z,21.51
2018-06-10T12:44:22.032Z,21.53
2018-06-10T12:45:21.976Z,21.62
2018-06-10T12:46:21.916Z,21.66
2018-06-10T12:47:21.858Z,21.69
2018-06-10T12:48:21.801Z,21.81
2018-06-10T12:49:21.756Z,21.88
2018-06-10T12:50:21.685Z,21.93
2018-06-10T12:51:21.629Z,21.98